sensor_id;sensor_type;location;lat;lon;timestamp;temperature;humidity
30379;DHT22;17168;49.164;9.060;2022-12-10T00:00:10;3.80;99.30
30379;DHT22;17168;49.164;9.060;2022-12-10T00:02:42;3.80;99.30
30379;DHT22;17168;49.164;9.060;2022-12-10T00:05:15;3.80;99.30
30379;DHT22;17168;49.164;9.060;2022-12-10T00:07:47;3.80;99.20
30379;DHT22;17168;49.164;9.060;2022-12-10T00:10:19;3.90;99.20
30379;DHT22;17168;49.164;9.060;2022-12-10T00:12:51;3.80;99.20
30379;DHT22;17168;49.164;9.060;2022-12-10T00:15:22;3.90;99.20
30379;DHT22;17168;49.164;9.060;2022-12-10T00:17:54;3.80;99.20
30379;DHT22;17168;49.164;9.060;2022-12-10T00:20:27;3.90;99.20
30379;DHT22;17168;49.164;9.060;2022-12-10T00:22:59;3.90;99.20
30379;DHT22;17168;49.164;9.060;2022-12-10T00:25:31;3.80;99.20
30379;DHT22;17168;49.164;9.060;2022-12-10T00:28:02;3.90;99.20
30379;DHT22;17168;49.164;9.060;2022-12-10T00:30:34;3.90;99.10
30379;DHT22;17168;49.164;9.060;2022-12-10T00:33:06;3.90;99.20
30379;DHT22;17168;49.164;9.060;2022-12-10T00:35:39;3.90;99.10
30379;DHT22;17168;49.164;9.060;2022-12-10T00:38:10;3.80;99.10
30379;DHT22;17168;49.164;9.060;2022-12-10T00:40:42;3.90;99.20
30379;DHT22;17168;49.164;9.060;2022-12-10T00:43:14;3.80;99.10
30379;DHT22;17168;49.164;9.060;2022-12-10T00:45:45;3.80;99.10
30379;DHT22;17168;49.164;9.060;2022-12-10T00:48:17;3.80;99.20
30379;DHT22;17168;49.164;9.060;2022-12-10T00:50:57;3.80;99.20
30379;DHT22;17168;49.164;9.060;2022-12-10T00:53:29;3.80;99.20
30379;DHT22;17168;49.164;9.060;2022-12-10T00:56:01;3.90;99.20
30379;DHT22;17168;49.164;9.060;2022-12-10T00:58:35;3.80;99.20
30379;DHT22;17168;49.164;9.060;2022-12-10T01:01:08;3.90;99.20
30379;DHT22;17168;49.164;9.060;2022-12-10T01:03:40;3.80;99.20
30379;DHT22;17168;49.164;9.060;2022-12-10T01:06:14;3.90;99.20
30379;DHT22;17168;49.164;9.060;2022-12-10T01:08:46;3.90;99.30
30379;DHT22;17168;49.164;9.060;2022-12-10T01:11:18;3.80;99.30
30379;DHT22;17168;49.164;9.060;2022-12-10T01:13:51;3.90;99.30
30379;DHT22;17168;49.164;9.060;2022-12-10T01:16:22;3.80;99.30
30379;DHT22;17168;49.164;9.060;2022-12-10T01:18:55;3.80;99.30
30379;DHT22;17168;49.164;9.060;2022-12-10T01:21:28;3.90;99.40
30379;DHT22;17168;49.164;9.060;2022-12-10T01:24:00;3.90;99.40
30379;DHT22;17168;49.164;9.060;2022-12-10T01:26:33;3.90;99.40
30379;DHT22;17168;49.164;9.060;2022-12-10T01:29:05;3.90;99.40
30379;DHT22;17168;49.164;9.060;2022-12-10T01:31:37;3.90;99.40
30379;DHT22;17168;49.164;9.060;2022-12-10T01:34:10;3.90;99.30
30379;DHT22;17168;49.164;9.060;2022-12-10T01:36:44;3.90;99.30
30379;DHT22;17168;49.164;9.060;2022-12-10T01:39:17;3.90;99.30
30379;DHT22;17168;49.164;9.060;2022-12-10T01:41:50;3.90;99.30
30379;DHT22;17168;49.164;9.060;2022-12-10T01:47:12;3.90;99.30
30379;DHT22;17168;49.164;9.060;2022-12-10T01:49:44;3.90;99.30
30379;DHT22;17168;49.164;9.060;2022-12-10T01:52:18;3.90;99.30
30379;DHT22;17168;49.164;9.060;2022-12-10T01:54:49;3.90;99.30
30379;DHT22;17168;49.164;9.060;2022-12-10T01:57:21;3.90;99.30
30379;DHT22;17168;49.164;9.060;2022-12-10T01:59:55;3.90;99.40
30379;DHT22;17168;49.164;9.060;2022-12-10T02:02:29;3.90;99.40
30379;DHT22;17168;49.164;9.060;2022-12-10T02:05:05;3.90;99.40
30379;DHT22;17168;49.164;9.060;2022-12-10T02:07:42;3.90;99.40
30379;DHT22;17168;49.164;9.060;2022-12-10T02:10:19;3.90;99.30
30379;DHT22;17168;49.164;9.060;2022-12-10T02:12:56;3.90;99.30
30379;DHT22;17168;49.164;9.060;2022-12-10T02:15:30;3.90;99.40
30379;DHT22;17168;49.164;9.060;2022-12-10T02:18:04;3.90;99.40
30379;DHT22;17168;49.164;9.060;2022-12-10T02:20:39;3.90;99.40
30379;DHT22;17168;49.164;9.060;2022-12-10T02:23:13;3.90;99.40
30379;DHT22;17168;49.164;9.060;2022-12-10T02:25:46;3.90;99.40
30379;DHT22;17168;49.164;9.060;2022-12-10T02:28:22;3.90;99.50
30379;DHT22;17168;49.164;9.060;2022-12-10T02:30:56;3.90;99.50
30379;DHT22;17168;49.164;9.060;2022-12-10T02:33:28;3.90;99.40
30379;DHT22;17168;49.164;9.060;2022-12-10T02:36:00;3.90;99.50
30379;DHT22;17168;49.164;9.060;2022-12-10T02:38:34;3.90;99.50
30379;DHT22;17168;49.164;9.060;2022-12-10T02:41:08;3.90;99.50
30379;DHT22;17168;49.164;9.060;2022-12-10T02:43:41;3.90;99.50
30379;DHT22;17168;49.164;9.060;2022-12-10T02:46:14;3.90;99.50
30379;DHT22;17168;49.164;9.060;2022-12-10T02:48:47;3.90;99.50
30379;DHT22;17168;49.164;9.060;2022-12-10T02:51:19;3.90;99.50
30379;DHT22;17168;49.164;9.060;2022-12-10T02:53:58;3.90;99.50
30379;DHT22;17168;49.164;9.060;2022-12-10T02:56:30;3.90;99.50
30379;DHT22;17168;49.164;9.060;2022-12-10T02:59:06;3.90;99.50
30379;DHT22;17168;49.164;9.060;2022-12-10T03:01:42;3.90;99.50
30379;DHT22;17168;49.164;9.060;2022-12-10T03:04:16;3.90;99.50
30379;DHT22;17168;49.164;9.060;2022-12-10T03:06:50;3.80;99.40
30379;DHT22;17168;49.164;9.060;2022-12-10T03:09:24;3.90;99.40
30379;DHT22;17168;49.164;9.060;2022-12-10T03:11:59;3.80;99.40
30379;DHT22;17168;49.164;9.060;2022-12-10T03:14:33;3.80;99.40
30379;DHT22;17168;49.164;9.060;2022-12-10T03:17:07;3.80;99.30
30379;DHT22;17168;49.164;9.060;2022-12-10T03:19:40;3.80;99.30
30379;DHT22;17168;49.164;9.060;2022-12-10T03:22:12;3.80;99.40
30379;DHT22;17168;49.164;9.060;2022-12-10T03:24:45;3.70;99.30
30379;DHT22;17168;49.164;9.060;2022-12-10T03:27:18;3.80;99.40
30379;DHT22;17168;49.164;9.060;2022-12-10T03:29:51;3.70;99.30
30379;DHT22;17168;49.164;9.060;2022-12-10T03:32:24;3.70;99.30
30379;DHT22;17168;49.164;9.060;2022-12-10T03:34:57;3.70;99.30
30379;DHT22;17168;49.164;9.060;2022-12-10T03:37:29;3.70;99.30
30379;DHT22;17168;49.164;9.060;2022-12-10T03:40:02;3.70;99.20
30379;DHT22;17168;49.164;9.060;2022-12-10T03:42:34;3.60;99.20
30379;DHT22;17168;49.164;9.060;2022-12-10T03:45:07;3.60;99.20
30379;DHT22;17168;49.164;9.060;2022-12-10T03:47:40;3.60;99.20
30379;DHT22;17168;49.164;9.060;2022-12-10T03:50:12;3.60;99.30
30379;DHT22;17168;49.164;9.060;2022-12-10T03:52:44;3.60;99.30
30379;DHT22;17168;49.164;9.060;2022-12-10T03:55:15;3.60;99.40
30379;DHT22;17168;49.164;9.060;2022-12-10T03:57:47;3.60;99.40
30379;DHT22;17168;49.164;9.060;2022-12-10T04:00:19;3.60;99.40
30379;DHT22;17168;49.164;9.060;2022-12-10T04:02:52;3.60;99.50
30379;DHT22;17168;49.164;9.060;2022-12-10T04:05:24;3.60;99.50
30379;DHT22;17168;49.164;9.060;2022-12-10T04:07:55;3.60;99.50
30379;DHT22;17168;49.164;9.060;2022-12-10T04:10:27;3.60;99.50
30379;DHT22;17168;49.164;9.060;2022-12-10T04:12:59;3.60;99.50
30379;DHT22;17168;49.164;9.060;2022-12-10T04:15:49;3.60;99.50
30379;DHT22;17168;49.164;9.060;2022-12-10T04:18:41;3.60;99.50
30379;DHT22;17168;49.164;9.060;2022-12-10T04:21:12;3.60;99.50
30379;DHT22;17168;49.164;9.060;2022-12-10T04:24:02;3.50;99.50
30379;DHT22;17168;49.164;9.060;2022-12-10T04:26:53;3.50;99.60
30379;DHT22;17168;49.164;9.060;2022-12-10T04:29:26;3.50;99.70
30379;DHT22;17168;49.164;9.060;2022-12-10T04:31:58;3.40;99.80
30379;DHT22;17168;49.164;9.060;2022-12-10T04:34:31;3.50;99.80
30379;DHT22;17168;49.164;9.060;2022-12-10T04:37:03;3.50;99.80
30379;DHT22;17168;49.164;9.060;2022-12-10T04:39:35;3.50;99.70
30379;DHT22;17168;49.164;9.060;2022-12-10T04:42:07;3.50;99.70
30379;DHT22;17168;49.164;9.060;2022-12-10T04:44:38;3.50;99.60
30379;DHT22;17168;49.164;9.060;2022-12-10T04:47:10;3.50;99.60
30379;DHT22;17168;49.164;9.060;2022-12-10T04:49:44;3.50;99.50
30379;DHT22;17168;49.164;9.060;2022-12-10T04:52:16;3.60;99.50
30379;DHT22;17168;49.164;9.060;2022-12-10T04:54:48;3.50;99.50
30379;DHT22;17168;49.164;9.060;2022-12-10T04:57:19;3.60;99.50
30379;DHT22;17168;49.164;9.060;2022-12-10T04:59:51;3.60;99.50
30379;DHT22;17168;49.164;9.060;2022-12-10T05:02:22;3.60;99.50
30379;DHT22;17168;49.164;9.060;2022-12-10T05:04:55;3.60;99.40
30379;DHT22;17168;49.164;9.060;2022-12-10T05:07:27;3.60;99.40
30379;DHT22;17168;49.164;9.060;2022-12-10T05:09:59;3.60;99.40
30379;DHT22;17168;49.164;9.060;2022-12-10T05:12:31;3.60;99.30
30379;DHT22;17168;49.164;9.060;2022-12-10T05:15:02;3.60;99.30
30379;DHT22;17168;49.164;9.060;2022-12-10T05:17:34;3.60;99.30
30379;DHT22;17168;49.164;9.060;2022-12-10T05:20:08;3.60;99.30
30379;DHT22;17168;49.164;9.060;2022-12-10T05:22:40;3.60;99.30
30379;DHT22;17168;49.164;9.060;2022-12-10T05:25:30;3.60;99.30
30379;DHT22;17168;49.164;9.060;2022-12-10T05:28:02;3.60;99.30
30379;DHT22;17168;49.164;9.060;2022-12-10T05:30:34;3.60;99.30
30379;DHT22;17168;49.164;9.060;2022-12-10T05:33:06;3.60;99.30
30379;DHT22;17168;49.164;9.060;2022-12-10T05:35:38;3.60;99.30
30379;DHT22;17168;49.164;9.060;2022-12-10T05:38:10;3.60;99.30
30379;DHT22;17168;49.164;9.060;2022-12-10T05:40:42;3.60;99.30
30379;DHT22;17168;49.164;9.060;2022-12-10T05:43:13;3.60;99.20
30379;DHT22;17168;49.164;9.060;2022-12-10T05:45:45;3.60;99.20
30379;DHT22;17168;49.164;9.060;2022-12-10T05:48:17;3.70;99.20
30379;DHT22;17168;49.164;9.060;2022-12-10T05:50:50;3.60;99.10
30379;DHT22;17168;49.164;9.060;2022-12-10T05:53:22;3.70;99.10
30379;DHT22;17168;49.164;9.060;2022-12-10T05:55:59;3.70;99.10
30379;DHT22;17168;49.164;9.060;2022-12-10T05:58:31;3.70;99.10
30379;DHT22;17168;49.164;9.060;2022-12-10T06:01:05;3.70;99.10
30379;DHT22;17168;49.164;9.060;2022-12-10T06:03:37;3.70;99.10
30379;DHT22;17168;49.164;9.060;2022-12-10T06:06:11;3.70;99.10
30379;DHT22;17168;49.164;9.060;2022-12-10T06:08:42;3.70;99.10
30379;DHT22;17168;49.164;9.060;2022-12-10T06:11:14;3.70;99.00
30379;DHT22;17168;49.164;9.060;2022-12-10T06:13:46;3.70;99.00
30379;DHT22;17168;49.164;9.060;2022-12-10T06:16:23;3.60;99.00
30379;DHT22;17168;49.164;9.060;2022-12-10T06:18:55;3.70;99.00
30379;DHT22;17168;49.164;9.060;2022-12-10T06:21:29;3.70;99.00
30379;DHT22;17168;49.164;9.060;2022-12-10T06:24:00;3.70;99.00
30379;DHT22;17168;49.164;9.060;2022-12-10T06:26:32;3.60;98.90
30379;DHT22;17168;49.164;9.060;2022-12-10T06:29:04;3.70;98.90
30379;DHT22;17168;49.164;9.060;2022-12-10T06:31:36;3.70;98.90
30379;DHT22;17168;49.164;9.060;2022-12-10T06:34:07;3.70;98.90
30379;DHT22;17168;49.164;9.060;2022-12-10T06:36:40;3.60;98.90
30379;DHT22;17168;49.164;9.060;2022-12-10T06:39:12;3.70;98.90
30379;DHT22;17168;49.164;9.060;2022-12-10T06:41:44;3.60;98.90
30379;DHT22;17168;49.164;9.060;2022-12-10T06:44:17;3.60;98.90
30379;DHT22;17168;49.164;9.060;2022-12-10T06:46:48;3.60;99.00
30379;DHT22;17168;49.164;9.060;2022-12-10T06:49:20;3.60;98.90
30379;DHT22;17168;49.164;9.060;2022-12-10T06:51:53;3.60;98.90
30379;DHT22;17168;49.164;9.060;2022-12-10T06:54:25;3.60;99.00
30379;DHT22;17168;49.164;9.060;2022-12-10T06:56:56;3.60;99.00
30379;DHT22;17168;49.164;9.060;2022-12-10T06:59:28;3.60;99.00
30379;DHT22;17168;49.164;9.060;2022-12-10T07:02:00;3.60;99.00
30379;DHT22;17168;49.164;9.060;2022-12-10T07:04:32;3.60;99.00
30379;DHT22;17168;49.164;9.060;2022-12-10T07:07:05;3.60;99.00
30379;DHT22;17168;49.164;9.060;2022-12-10T07:09:40;3.60;99.10
30379;DHT22;17168;49.164;9.060;2022-12-10T07:12:12;3.60;99.10
30379;DHT22;17168;49.164;9.060;2022-12-10T07:14:43;3.60;99.10
30379;DHT22;17168;49.164;9.060;2022-12-10T07:17:15;3.60;99.00
30379;DHT22;17168;49.164;9.060;2022-12-10T07:19:46;3.60;99.00
30379;DHT22;17168;49.164;9.060;2022-12-10T07:22:21;3.60;99.00
30379;DHT22;17168;49.164;9.060;2022-12-10T07:24:53;3.60;99.10
30379;DHT22;17168;49.164;9.060;2022-12-10T07:27:25;3.60;99.10
30379;DHT22;17168;49.164;9.060;2022-12-10T07:29:57;3.60;99.10
30379;DHT22;17168;49.164;9.060;2022-12-10T07:32:29;3.60;99.20
30379;DHT22;17168;49.164;9.060;2022-12-10T07:35:01;3.60;99.30
30379;DHT22;17168;49.164;9.060;2022-12-10T07:37:34;3.60;99.30
30379;DHT22;17168;49.164;9.060;2022-12-10T07:40:06;3.60;99.30
30379;DHT22;17168;49.164;9.060;2022-12-10T07:42:38;3.60;99.30
30379;DHT22;17168;49.164;9.060;2022-12-10T07:45:10;3.60;99.20
30379;DHT22;17168;49.164;9.060;2022-12-10T07:47:41;3.60;99.20
30379;DHT22;17168;49.164;9.060;2022-12-10T07:50:13;3.60;99.20
30379;DHT22;17168;49.164;9.060;2022-12-10T07:52:46;3.60;99.20
30379;DHT22;17168;49.164;9.060;2022-12-10T07:55:18;3.60;99.20
30379;DHT22;17168;49.164;9.060;2022-12-10T07:57:49;3.60;99.20
30379;DHT22;17168;49.164;9.060;2022-12-10T08:00:21;3.60;99.30
30379;DHT22;17168;49.164;9.060;2022-12-10T08:02:53;3.60;99.30
30379;DHT22;17168;49.164;9.060;2022-12-10T08:05:24;3.50;99.40
30379;DHT22;17168;49.164;9.060;2022-12-10T08:07:57;3.50;99.60
30379;DHT22;17168;49.164;9.060;2022-12-10T08:10:37;3.50;99.80
30379;DHT22;17168;49.164;9.060;2022-12-10T08:13:09;3.40;99.90
30379;DHT22;17168;49.164;9.060;2022-12-10T08:15:41;3.50;99.90
30379;DHT22;17168;49.164;9.060;2022-12-10T08:18:13;3.50;99.90
30379;DHT22;17168;49.164;9.060;2022-12-10T08:20:44;3.50;99.90
30379;DHT22;17168;49.164;9.060;2022-12-10T08:23:17;3.50;99.90
30379;DHT22;17168;49.164;9.060;2022-12-10T08:25:49;3.60;99.90
30379;DHT22;17168;49.164;9.060;2022-12-10T08:28:21;3.60;99.90
30379;DHT22;17168;49.164;9.060;2022-12-10T08:30:52;3.60;99.90
30379;DHT22;17168;49.164;9.060;2022-12-10T08:33:24;3.70;99.90
30379;DHT22;17168;49.164;9.060;2022-12-10T08:35:56;3.70;99.90
30379;DHT22;17168;49.164;9.060;2022-12-10T08:38:30;3.60;99.90
30379;DHT22;17168;49.164;9.060;2022-12-10T08:41:05;3.60;99.90
30379;DHT22;17168;49.164;9.060;2022-12-10T08:43:37;3.50;99.90
30379;DHT22;17168;49.164;9.060;2022-12-10T08:46:08;3.50;99.90
30379;DHT22;17168;49.164;9.060;2022-12-10T08:48:41;3.50;99.90
30379;DHT22;17168;49.164;9.060;2022-12-10T08:51:13;3.60;99.90
30379;DHT22;17168;49.164;9.060;2022-12-10T08:53:47;3.60;99.90
30379;DHT22;17168;49.164;9.060;2022-12-10T08:56:18;3.70;99.90
30379;DHT22;17168;49.164;9.060;2022-12-10T08:58:50;3.70;99.90
30379;DHT22;17168;49.164;9.060;2022-12-10T09:01:22;3.70;99.90
30379;DHT22;17168;49.164;9.060;2022-12-10T09:03:54;3.80;99.90
30379;DHT22;17168;49.164;9.060;2022-12-10T09:06:25;3.80;99.90
30379;DHT22;17168;49.164;9.060;2022-12-10T09:08:58;3.80;99.90
30379;DHT22;17168;49.164;9.060;2022-12-10T09:11:31;3.90;99.90
30379;DHT22;17168;49.164;9.060;2022-12-10T09:14:03;3.90;99.90
30379;DHT22;17168;49.164;9.060;2022-12-10T09:16:35;3.90;99.90
30379;DHT22;17168;49.164;9.060;2022-12-10T09:19:07;4.00;99.90
30379;DHT22;17168;49.164;9.060;2022-12-10T09:21:39;4.00;99.90
30379;DHT22;17168;49.164;9.060;2022-12-10T09:24:12;4.00;99.90
30379;DHT22;17168;49.164;9.060;2022-12-10T09:26:44;4.00;99.90
30379;DHT22;17168;49.164;9.060;2022-12-10T09:29:16;4.00;99.90
30379;DHT22;17168;49.164;9.060;2022-12-10T09:31:49;4.10;99.90
30379;DHT22;17168;49.164;9.060;2022-12-10T09:34:21;4.10;99.90
30379;DHT22;17168;49.164;9.060;2022-12-10T09:36:52;4.10;99.90
30379;DHT22;17168;49.164;9.060;2022-12-10T09:39:25;4.10;99.90
30379;DHT22;17168;49.164;9.060;2022-12-10T09:42:01;4.10;99.90
30379;DHT22;17168;49.164;9.060;2022-12-10T09:44:41;4.10;99.90
30379;DHT22;17168;49.164;9.060;2022-12-10T09:47:13;4.20;99.90
30379;DHT22;17168;49.164;9.060;2022-12-10T09:49:48;4.20;99.90
30379;DHT22;17168;49.164;9.060;2022-12-10T09:52:22;4.20;99.90
30379;DHT22;17168;49.164;9.060;2022-12-10T09:54:56;4.30;99.90
30379;DHT22;17168;49.164;9.060;2022-12-10T09:57:29;4.30;99.90
30379;DHT22;17168;49.164;9.060;2022-12-10T10:00:03;4.30;99.90
30379;DHT22;17168;49.164;9.060;2022-12-10T10:02:36;4.40;99.90
30379;DHT22;17168;49.164;9.060;2022-12-10T10:05:10;4.40;99.90
30379;DHT22;17168;49.164;9.060;2022-12-10T10:07:43;4.40;99.90
30379;DHT22;17168;49.164;9.060;2022-12-10T10:10:20;4.50;99.90
30379;DHT22;17168;49.164;9.060;2022-12-10T10:12:54;4.50;99.90
30379;DHT22;17168;49.164;9.060;2022-12-10T10:15:28;4.60;99.90
30379;DHT22;17168;49.164;9.060;2022-12-10T10:18:02;4.60;99.90
30379;DHT22;17168;49.164;9.060;2022-12-10T10:20:35;4.70;99.90
30379;DHT22;17168;49.164;9.060;2022-12-10T10:23:07;4.70;99.90
30379;DHT22;17168;49.164;9.060;2022-12-10T10:25:41;4.70;99.80
30379;DHT22;17168;49.164;9.060;2022-12-10T10:28:18;4.80;99.70
30379;DHT22;17168;49.164;9.060;2022-12-10T10:30:50;4.80;99.70
30379;DHT22;17168;49.164;9.060;2022-12-10T10:33:23;4.80;99.70
30379;DHT22;17168;49.164;9.060;2022-12-10T10:35:55;4.80;99.80
30379;DHT22;17168;49.164;9.060;2022-12-10T10:38:29;4.90;99.80
30379;DHT22;17168;49.164;9.060;2022-12-10T10:41:03;4.90;99.80
30379;DHT22;17168;49.164;9.060;2022-12-10T10:43:39;5.00;99.50
30379;DHT22;17168;49.164;9.060;2022-12-10T10:46:13;5.00;99.20
30379;DHT22;17168;49.164;9.060;2022-12-10T10:48:46;5.00;99.20
30379;DHT22;17168;49.164;9.060;2022-12-10T10:51:18;5.10;99.30
30379;DHT22;17168;49.164;9.060;2022-12-10T10:53:51;5.10;99.00
30379;DHT22;17168;49.164;9.060;2022-12-10T10:56:26;5.20;99.30
30379;DHT22;17168;49.164;9.060;2022-12-10T10:58:58;5.20;99.20
30379;DHT22;17168;49.164;9.060;2022-12-10T11:01:43;5.20;99.00
30379;DHT22;17168;49.164;9.060;2022-12-10T11:04:15;5.30;99.10
30379;DHT22;17168;49.164;9.060;2022-12-10T11:06:47;5.30;99.00
30379;DHT22;17168;49.164;9.060;2022-12-10T11:09:21;5.20;98.90
30379;DHT22;17168;49.164;9.060;2022-12-10T11:11:58;5.20;98.90
30379;DHT22;17168;49.164;9.060;2022-12-10T11:14:31;5.20;98.90
30379;DHT22;17168;49.164;9.060;2022-12-10T11:17:16;5.30;99.00
30379;DHT22;17168;49.164;9.060;2022-12-10T11:19:54;5.30;99.00
30379;DHT22;17168;49.164;9.060;2022-12-10T11:22:26;5.30;98.90
30379;DHT22;17168;49.164;9.060;2022-12-10T11:24:59;5.30;98.90
30379;DHT22;17168;49.164;9.060;2022-12-10T11:27:38;5.30;98.20
30379;DHT22;17168;49.164;9.060;2022-12-10T11:30:15;5.30;98.30
30379;DHT22;17168;49.164;9.060;2022-12-10T11:33:00;5.30;98.20
30379;DHT22;17168;49.164;9.060;2022-12-10T11:35:38;5.30;98.30
30379;DHT22;17168;49.164;9.060;2022-12-10T11:38:15;5.30;98.50
30379;DHT22;17168;49.164;9.060;2022-12-10T11:40:50;5.30;98.20
30379;DHT22;17168;49.164;9.060;2022-12-10T11:43:27;5.40;98.10
30379;DHT22;17168;49.164;9.060;2022-12-10T11:46:05;5.50;98.10
30379;DHT22;17168;49.164;9.060;2022-12-10T11:48:46;5.50;98.10
30379;DHT22;17168;49.164;9.060;2022-12-10T11:51:23;5.50;97.70
30379;DHT22;17168;49.164;9.060;2022-12-10T11:54:02;5.50;97.50
30379;DHT22;17168;49.164;9.060;2022-12-10T11:56:37;5.50;96.90
30379;DHT22;17168;49.164;9.060;2022-12-10T11:59:15;5.50;96.70
30379;DHT22;17168;49.164;9.060;2022-12-10T12:01:51;5.50;96.60
30379;DHT22;17168;49.164;9.060;2022-12-10T12:04:26;5.50;96.20
30379;DHT22;17168;49.164;9.060;2022-12-10T12:09:59;5.50;96.20
30379;DHT22;17168;49.164;9.060;2022-12-10T12:12:35;5.50;96.30
30379;DHT22;17168;49.164;9.060;2022-12-10T12:15:15;5.60;96.10
30379;DHT22;17168;49.164;9.060;2022-12-10T12:17:50;5.60;95.90
30379;DHT22;17168;49.164;9.060;2022-12-10T12:20:25;5.60;95.70
30379;DHT22;17168;49.164;9.060;2022-12-10T12:23:00;5.50;95.70
30379;DHT22;17168;49.164;9.060;2022-12-10T12:25:34;5.50;95.40
30379;DHT22;17168;49.164;9.060;2022-12-10T12:28:10;5.50;95.40
30379;DHT22;17168;49.164;9.060;2022-12-10T12:30:45;5.50;95.60
30379;DHT22;17168;49.164;9.060;2022-12-10T12:33:18;5.60;95.60
30379;DHT22;17168;49.164;9.060;2022-12-10T12:35:55;5.60;95.60
30379;DHT22;17168;49.164;9.060;2022-12-10T12:38:29;5.60;95.10
30379;DHT22;17168;49.164;9.060;2022-12-10T12:41:03;5.60;95.30
30379;DHT22;17168;49.164;9.060;2022-12-10T12:43:39;5.60;94.60
30379;DHT22;17168;49.164;9.060;2022-12-10T12:46:13;5.60;94.70
30379;DHT22;17168;49.164;9.060;2022-12-10T12:48:50;5.60;94.30
30379;DHT22;17168;49.164;9.060;2022-12-10T12:51:25;5.60;94.40
30379;DHT22;17168;49.164;9.060;2022-12-10T12:53:58;5.50;94.30
30379;DHT22;17168;49.164;9.060;2022-12-10T12:56:34;5.60;94.10
30379;DHT22;17168;49.164;9.060;2022-12-10T12:59:10;5.60;94.10
30379;DHT22;17168;49.164;9.060;2022-12-10T13:01:47;5.50;93.50
30379;DHT22;17168;49.164;9.060;2022-12-10T13:04:21;5.50;92.70
30379;DHT22;17168;49.164;9.060;2022-12-10T13:07:09;5.50;92.90
30379;DHT22;17168;49.164;9.060;2022-12-10T13:10:09;5.50;92.60
30379;DHT22;17168;49.164;9.060;2022-12-10T13:12:45;5.50;92.60
30379;DHT22;17168;49.164;9.060;2022-12-10T13:15:18;5.50;92.80
30379;DHT22;17168;49.164;9.060;2022-12-10T13:20:55;5.50;93.30
30379;DHT22;17168;49.164;9.060;2022-12-10T13:23:48;5.60;93.40
30379;DHT22;17168;49.164;9.060;2022-12-10T13:26:25;5.60;93.40
30379;DHT22;17168;49.164;9.060;2022-12-10T13:29:11;5.60;93.30
30379;DHT22;17168;49.164;9.060;2022-12-10T13:31:44;5.60;93.20
30379;DHT22;17168;49.164;9.060;2022-12-10T13:34:31;5.60;93.20
30379;DHT22;17168;49.164;9.060;2022-12-10T13:37:14;5.60;92.90
30379;DHT22;17168;49.164;9.060;2022-12-10T13:39:52;5.70;92.70
30379;DHT22;17168;49.164;9.060;2022-12-10T13:42:28;5.60;92.40
30379;DHT22;17168;49.164;9.060;2022-12-10T13:45:26;5.70;92.30
30379;DHT22;17168;49.164;9.060;2022-12-10T13:48:19;5.60;91.90
30379;DHT22;17168;49.164;9.060;2022-12-10T13:50:56;5.60;92.00
30379;DHT22;17168;49.164;9.060;2022-12-10T13:53:33;5.50;91.80
30379;DHT22;17168;49.164;9.060;2022-12-10T13:56:14;5.50;91.50
30379;DHT22;17168;49.164;9.060;2022-12-10T13:58:50;5.40;91.30
30379;DHT22;17168;49.164;9.060;2022-12-10T14:01:29;5.30;91.40
30379;DHT22;17168;49.164;9.060;2022-12-10T14:04:13;5.30;91.30
30379;DHT22;17168;49.164;9.060;2022-12-10T14:06:47;5.30;91.00
30379;DHT22;17168;49.164;9.060;2022-12-10T14:09:21;5.20;91.00
30379;DHT22;17168;49.164;9.060;2022-12-10T14:11:56;5.20;90.70
30379;DHT22;17168;49.164;9.060;2022-12-10T14:14:29;5.10;90.00
30379;DHT22;17168;49.164;9.060;2022-12-10T14:17:02;5.00;90.20
30379;DHT22;17168;49.164;9.060;2022-12-10T14:19:37;5.00;90.40
30379;DHT22;17168;49.164;9.060;2022-12-10T14:22:12;5.00;90.20
30379;DHT22;17168;49.164;9.060;2022-12-10T14:24:47;4.90;90.30
30379;DHT22;17168;49.164;9.060;2022-12-10T14:27:24;4.90;90.30
30379;DHT22;17168;49.164;9.060;2022-12-10T14:29:58;4.90;90.20
30379;DHT22;17168;49.164;9.060;2022-12-10T14:32:31;4.90;90.10
30379;DHT22;17168;49.164;9.060;2022-12-10T14:35:04;4.80;90.10
30379;DHT22;17168;49.164;9.060;2022-12-10T14:37:36;4.80;90.10
30379;DHT22;17168;49.164;9.060;2022-12-10T14:40:12;4.80;90.10
30379;DHT22;17168;49.164;9.060;2022-12-10T14:42:51;4.80;90.10
30379;DHT22;17168;49.164;9.060;2022-12-10T14:45:25;4.80;90.10
30379;DHT22;17168;49.164;9.060;2022-12-10T14:47:59;4.80;90.20
30379;DHT22;17168;49.164;9.060;2022-12-10T14:50:31;4.80;90.20
30379;DHT22;17168;49.164;9.060;2022-12-10T14:53:04;4.80;90.10
30379;DHT22;17168;49.164;9.060;2022-12-10T14:55:37;4.80;90.10
30379;DHT22;17168;49.164;9.060;2022-12-10T14:58:11;4.80;90.10
30379;DHT22;17168;49.164;9.060;2022-12-10T15:00:45;4.80;90.00
30379;DHT22;17168;49.164;9.060;2022-12-10T15:03:21;4.70;90.00
30379;DHT22;17168;49.164;9.060;2022-12-10T15:05:54;4.70;89.90
30379;DHT22;17168;49.164;9.060;2022-12-10T15:08:27;4.70;89.80
30379;DHT22;17168;49.164;9.060;2022-12-10T15:11:00;4.70;89.60
30379;DHT22;17168;49.164;9.060;2022-12-10T15:13:34;4.70;89.60
30379;DHT22;17168;49.164;9.060;2022-12-10T15:16:15;4.70;89.60
30379;DHT22;17168;49.164;9.060;2022-12-10T15:18:47;4.60;89.60
30379;DHT22;17168;49.164;9.060;2022-12-10T15:21:20;4.60;89.70
30379;DHT22;17168;49.164;9.060;2022-12-10T15:24:07;4.60;89.50
30379;DHT22;17168;49.164;9.060;2022-12-10T15:26:41;4.60;89.40
30379;DHT22;17168;49.164;9.060;2022-12-10T15:29:30;4.50;89.30
30379;DHT22;17168;49.164;9.060;2022-12-10T15:32:08;4.50;89.30
30379;DHT22;17168;49.164;9.060;2022-12-10T15:34:46;4.40;89.40
30379;DHT22;17168;49.164;9.060;2022-12-10T15:37:19;4.40;89.40
30379;DHT22;17168;49.164;9.060;2022-12-10T15:39:53;4.40;89.40
30379;DHT22;17168;49.164;9.060;2022-12-10T15:42:36;4.40;89.40
30379;DHT22;17168;49.164;9.060;2022-12-10T15:45:20;4.30;89.30
30379;DHT22;17168;49.164;9.060;2022-12-10T15:47:54;4.30;89.40
30379;DHT22;17168;49.164;9.060;2022-12-10T15:50:28;4.20;89.40
30379;DHT22;17168;49.164;9.060;2022-12-10T15:52:59;4.10;89.50
30379;DHT22;17168;49.164;9.060;2022-12-10T15:55:31;4.10;89.80
30379;DHT22;17168;49.164;9.060;2022-12-10T15:58:04;4.00;89.90
30379;DHT22;17168;49.164;9.060;2022-12-10T16:00:38;3.90;90.00
30379;DHT22;17168;49.164;9.060;2022-12-10T16:03:15;3.80;90.10
30379;DHT22;17168;49.164;9.060;2022-12-10T16:05:47;3.80;90.20
30379;DHT22;17168;49.164;9.060;2022-12-10T16:08:21;3.80;90.30
30379;DHT22;17168;49.164;9.060;2022-12-10T16:10:54;3.80;90.40
30379;DHT22;17168;49.164;9.060;2022-12-10T16:13:27;3.80;90.40
30379;DHT22;17168;49.164;9.060;2022-12-10T16:16:01;3.80;90.40
30379;DHT22;17168;49.164;9.060;2022-12-10T16:18:34;3.80;90.40
30379;DHT22;17168;49.164;9.060;2022-12-10T16:21:09;3.80;90.40
30379;DHT22;17168;49.164;9.060;2022-12-10T16:23:40;3.80;90.40
30379;DHT22;17168;49.164;9.060;2022-12-10T16:26:13;3.80;90.40
30379;DHT22;17168;49.164;9.060;2022-12-10T16:28:45;3.80;90.40
30379;DHT22;17168;49.164;9.060;2022-12-10T16:31:19;3.80;90.50
30379;DHT22;17168;49.164;9.060;2022-12-10T16:33:54;3.80;90.50
30379;DHT22;17168;49.164;9.060;2022-12-10T16:36:27;3.80;90.40